createdAt,value
2024-01-06T00:01:33.499Z,122.90
2024-01-06T00:03:36.373Z,112.60
2024-01-06T00:05:39.020Z,103.43
2024-01-06T00:07:41.738Z,106.38
2024-01-06T00:09:44.890Z,132.23
2024-01-06T00:11:48.113Z,134.00
2024-01-06T00:13:51.263Z,132.82
2024-01-06T00:15:54.076Z,110.95
2024-01-06T00:17:56.920Z,133.20
2024-01-06T00:20:01.884Z,119.53
2024-01-06T00:22:05.275Z,138.73
2024-01-06T00:24:07.839Z,94.38
2024-01-06T00:26:13.199Z,96.97
2024-01-06T00:28:16.007Z,113.68
2024-01-06T00:30:18.704Z,101.40
2024-01-06T00:32:21.367Z,97.72
2024-01-06T00:34:24.148Z,83.93
2024-01-06T00:36:27.064Z,78.75
2024-01-06T00:38:29.804Z,80.65
2024-01-06T00:40:34.189Z,77.30
2024-01-06T00:42:36.979Z,75.20
2024-01-06T00:44:39.714Z,60.40
2024-01-06T00:46:42.271Z,66.97
2024-01-06T00:48:45.364Z,88.13
2024-01-06T00:50:48.415Z,65.20
2024-01-06T00:52:54.491Z,62.13
2024-01-06T00:54:56.872Z,63.22
2024-01-06T00:56:59.483Z,61.20
2024-01-06T00:59:02.368Z,63.50
2024-01-06T01:01:05.159Z,66.35
2024-01-06T01:03:09.165Z,58.38
2024-01-06T01:05:12.396Z,58.35
2024-01-06T01:07:15.021Z,61.03
2024-01-06T01:09:17.762Z,70.28
2024-01-06T01:11:21.406Z,63.30
2024-01-06T01:13:24.541Z,70.97
2024-01-06T01:15:27.403Z,61.70
2024-01-06T01:17:31.703Z,69.60
2024-01-06T01:19:34.363Z,60.85
2024-01-06T01:21:36.696Z,61.50
2024-01-06T01:23:39.736Z,57.28
2024-01-06T01:25:42.694Z,54.70
2024-01-06T01:27:45.040Z,46.42
2024-01-06T01:29:50.065Z,50.03
2024-01-06T01:31:52.925Z,54.20
2024-01-06T01:33:56.419Z,56.25
2024-01-06T01:36:02.400Z,52.20
2024-01-06T01:38:05.680Z,46.28
2024-01-06T01:40:08.824Z,50.33
2024-01-06T01:42:11.974Z,56.38
2024-01-06T01:44:14.735Z,55.05
2024-01-06T01:46:17.600Z,52.70
2024-01-06T01:48:22.314Z,51.42
2024-01-06T01:50:26.571Z,63.63
2024-01-06T01:52:29.600Z,60.42
2024-01-06T01:54:32.188Z,67.25
2024-01-06T01:56:36.303Z,72.63
2024-01-06T01:58:39.907Z,66.90
2024-01-06T02:00:43.012Z,62.42
2024-01-06T02:02:45.919Z,75.20
2024-01-06T02:04:48.601Z,92.50
2024-01-06T02:06:51.199Z,82.28
2024-01-06T02:08:53.895Z,70.88
2024-01-06T02:10:57.823Z,75.55
2024-01-06T02:13:10.507Z,82.05
2024-01-06T02:15:12.829Z,82.82
2024-01-06T02:17:15.576Z,76.75
2024-01-06T02:19:21.408Z,79.22
2024-01-06T02:21:25.123Z,78.93
2024-01-06T02:23:29.030Z,65.00
2024-01-06T02:25:31.423Z,79.05
2024-01-06T02:27:34.372Z,73.22
2024-01-06T02:29:36.752Z,75.15
2024-01-06T02:31:39.501Z,76.78
2024-01-06T02:33:41.919Z,74.68
2024-01-06T02:35:44.648Z,75.57
2024-01-06T02:37:47.011Z,81.88
2024-01-06T02:39:49.636Z,86.50
2024-01-06T02:41:52.415Z,76.00
2024-01-06T02:43:57.657Z,68.57
2024-01-06T02:46:00.443Z,73.38
2024-01-06T02:48:03.678Z,72.40
2024-01-06T02:50:07.702Z,75.45
2024-01-06T02:52:10.321Z,65.80
2024-01-06T02:54:13.235Z,73.47
2024-01-06T02:56:16.058Z,61.42
2024-01-06T02:58:19.409Z,72.75
2024-01-06T03:00:22.566Z,60.00
2024-01-06T03:02:25.210Z,65.40
2024-01-06T03:04:27.932Z,62.72
2024-01-06T03:06:30.546Z,61.05
2024-01-06T03:08:33.195Z,55.47
2024-01-06T03:10:35.836Z,65.35
2024-01-06T03:12:38.734Z,61.97
2024-01-06T03:14:41.668Z,63.65
2024-01-06T03:16:44.253Z,62.13
2024-01-06T03:18:48.549Z,64.50
2024-01-06T03:20:51.100Z,63.33
2024-01-06T03:22:53.671Z,59.67
2024-01-06T03:24:56.369Z,65.70
2024-01-06T03:26:59.971Z,59.42
2024-01-06T03:29:04.197Z,67.80
2024-01-06T03:31:06.876Z,57.13
2024-01-06T03:33:09.587Z,64.75
2024-01-06T03:35:12.501Z,66.43
2024-01-06T03:37:14.931Z,63.28
2024-01-06T03:39:17.561Z,63.13
2024-01-06T03:41:20.250Z,59.50
2024-01-06T03:43:22.518Z,61.90
2024-01-06T03:45:25.199Z,62.35
2024-01-06T03:47:27.865Z,59.85
2024-01-06T03:49:30.881Z,63.22
2024-01-06T03:51:33.750Z,60.45
2024-01-06T03:53:36.410Z,57.72
2024-01-06T03:55:39.019Z,58.47
2024-01-06T03:57:41.787Z,61.03
2024-01-06T03:59:44.565Z,66.88
2024-01-06T04:01:47.043Z,61.63
2024-01-06T04:03:49.442Z,63.78
2024-01-06T04:05:52.530Z,67.68
2024-01-06T04:07:54.889Z,57.80
2024-01-06T04:09:57.473Z,56.40
2024-01-06T04:12:02.808Z,54.92
2024-01-06T04:14:05.665Z,59.15
2024-01-06T04:16:08.055Z,69.55
2024-01-06T04:18:11.166Z,57.85
2024-01-06T04:20:14.078Z,65.20
2024-01-06T04:22:16.567Z,65.65
2024-01-06T04:24:19.149Z,60.72
2024-01-06T04:26:21.877Z,60.53
2024-01-06T04:28:24.378Z,68.47
2024-01-06T04:30:27.544Z,55.92
2024-01-06T04:32:30.319Z,62.97
2024-01-06T04:34:32.891Z,55.10
2024-01-06T04:36:35.433Z,57.28
2024-01-06T04:38:37.813Z,56.72
2024-01-06T04:40:40.464Z,57.35
2024-01-06T04:42:43.658Z,54.00
2024-01-06T04:44:46.566Z,55.00
2024-01-06T04:46:49.327Z,52.33
2024-01-06T04:48:52.375Z,60.60
2024-01-06T04:50:55.356Z,48.47
2024-01-06T04:52:57.946Z,48.42
2024-01-06T04:55:00.437Z,46.03
2024-01-06T04:57:02.778Z,47.90
2024-01-06T04:59:05.465Z,47.78
2024-01-06T05:01:08.502Z,49.65
2024-01-06T05:03:11.408Z,48.95
2024-01-06T05:05:14.220Z,45.15
2024-01-06T05:07:16.856Z,42.42
2024-01-06T05:09:19.793Z,49.47
2024-01-06T05:11:22.576Z,46.95
2024-01-06T05:13:25.057Z,46.40
2024-01-06T05:15:28.254Z,45.22
2024-01-06T05:17:31.118Z,49.50
2024-01-06T05:19:34.661Z,43.25
2024-01-06T05:21:37.971Z,45.03
2024-01-06T05:23:40.709Z,40.10
2024-01-06T05:25:43.010Z,45.00
2024-01-06T05:27:45.843Z,47.35
2024-01-06T05:29:50.928Z,47.65
2024-01-06T05:31:54.779Z,46.10
2024-01-06T05:33:57.483Z,49.90
2024-01-06T05:36:00.507Z,43.75
2024-01-06T05:38:02.943Z,43.38
2024-01-06T05:40:07.116Z,41.67
2024-01-06T05:42:14.639Z,49.28
2024-01-06T05:44:17.123Z,49.55
2024-01-06T05:46:26.282Z,44.35
2024-01-06T05:48:29.447Z,55.00
2024-01-06T05:50:32.280Z,54.30
2024-01-06T05:52:35.084Z,52.17
2024-01-06T05:54:37.855Z,51.53
2024-01-06T05:56:40.655Z,52.83
2024-01-06T05:58:43.600Z,50.90
2024-01-06T06:00:48.511Z,46.25
2024-01-06T06:02:51.093Z,51.42
2024-01-06T06:04:54.153Z,49.75
2024-01-06T06:06:59.197Z,42.50
2024-01-06T06:09:08.383Z,49.53
2024-01-06T06:11:14.430Z,47.53
2024-01-06T06:13:17.069Z,42.22
2024-01-06T06:15:19.721Z,40.60
2024-01-06T06:17:22.308Z,50.47
2024-01-06T06:19:25.918Z,45.78
2024-01-06T06:21:29.998Z,46.60
2024-01-06T06:23:33.255Z,45.40
2024-01-06T06:25:36.097Z,51.13
2024-01-06T06:27:38.704Z,43.95
2024-01-06T06:29:41.208Z,48.33
2024-01-06T06:31:48.258Z,43.58
2024-01-06T06:33:51.313Z,47.13
2024-01-06T06:35:53.872Z,48.10
2024-01-06T06:37:56.357Z,44.20
2024-01-06T06:39:59.060Z,41.30
2024-01-06T06:42:01.770Z,40.10
2024-01-06T06:44:06.439Z,47.47
2024-01-06T06:46:09.516Z,40.92
2024-01-06T06:48:12.418Z,46.92
2024-01-06T06:50:15.040Z,41.58
2024-01-06T06:52:17.684Z,43.53
2024-01-06T06:54:20.004Z,46.28
2024-01-06T06:56:22.513Z,43.97
2024-01-06T06:58:25.287Z,42.90
2024-01-06T07:00:28.026Z,46.60
2024-01-06T07:02:30.891Z,48.47
2024-01-06T07:04:33.719Z,46.15
2024-01-06T07:06:36.305Z,45.70
2024-01-06T07:08:40.017Z,40.35
2024-01-06T07:10:43.096Z,42.45
2024-01-06T07:12:45.484Z,47.22
2024-01-06T07:14:47.850Z,43.95
2024-01-06T07:16:50.643Z,51.88
2024-01-06T07:18:53.501Z,42.97
2024-01-06T07:20:56.506Z,47.78
2024-01-06T07:22:58.966Z,43.42
2024-01-06T07:25:02.615Z,47.03
2024-01-06T07:27:05.589Z,47.55
2024-01-06T07:29:09.495Z,48.35
2024-01-06T07:31:11.869Z,41.67
2024-01-06T07:33:14.734Z,46.42
2024-01-06T07:35:18.241Z,38.67
2024-01-06T07:37:20.801Z,43.88
2024-01-06T07:39:23.687Z,43.30
2024-01-06T07:41:26.283Z,46.00
2024-01-06T07:43:28.853Z,45.40
2024-01-06T07:45:33.050Z,47.10
2024-01-06T07:47:35.592Z,47.30
2024-01-06T07:49:38.474Z,43.05
2024-01-06T07:51:41.359Z,37.60
2024-01-06T07:53:43.747Z,43.95
2024-01-06T07:55:47.353Z,49.90
2024-01-06T07:57:49.837Z,45.22
2024-01-06T07:59:52.408Z,45.90
2024-01-06T08:01:55.133Z,46.88
2024-01-06T08:03:58.063Z,43.45
2024-01-06T08:06:01.038Z,46.75
2024-01-06T08:08:03.748Z,45.63
2024-01-06T08:10:07.512Z,46.70
2024-01-06T08:12:10.022Z,45.13
2024-01-06T08:14:12.809Z,43.25
2024-01-06T08:16:15.353Z,49.33
2024-01-06T08:18:17.893Z,48.60
2024-01-06T08:20:21.034Z,46.90
2024-01-06T08:22:23.647Z,51.83
2024-01-06T08:24:26.375Z,48.55
2024-01-06T08:26:29.677Z,52.13
2024-01-06T08:28:32.245Z,59.28
2024-01-06T08:30:34.988Z,45.10
2024-01-06T08:32:38.646Z,52.55
2024-01-06T08:34:41.185Z,52.38
2024-01-06T08:36:44.057Z,48.03
2024-01-06T08:38:46.791Z,47.72
2024-01-06T08:40:51.576Z,51.97
2024-01-06T08:42:54.224Z,48.55
2024-01-06T08:44:57.366Z,49.45
2024-01-06T08:47:00.178Z,45.33
2024-01-06T08:49:02.733Z,50.97
2024-01-06T08:51:05.881Z,48.28
2024-01-06T08:53:08.468Z,41.20
2024-01-06T08:55:10.982Z,47.40
2024-01-06T08:57:13.953Z,53.28
2024-01-06T08:59:16.766Z,58.90
2024-01-06T09:01:19.465Z,58.92
2024-01-06T09:03:27.788Z,60.80
2024-01-06T09:05:31.024Z,57.20
2024-01-06T09:07:33.764Z,55.97
2024-01-06T09:09:36.367Z,61.88
2024-01-06T09:11:39.111Z,60.60
2024-01-06T09:13:42.134Z,54.97
2024-01-06T09:15:44.809Z,63.47
2024-01-06T09:17:47.560Z,56.22
2024-01-06T09:19:50.668Z,54.15
2024-01-06T09:21:53.673Z,58.42
2024-01-06T09:23:56.451Z,59.50
2024-01-06T09:25:59.454Z,54.35
2024-01-06T09:28:02.219Z,57.45
2024-01-06T09:30:06.148Z,54.92
2024-01-06T09:32:08.722Z,58.05
2024-01-06T09:34:12.109Z,62.25
2024-01-06T09:36:15.620Z,51.78
2024-01-06T09:38:18.996Z,66.80
2024-01-06T09:40:24.727Z,61.30
2024-01-06T09:42:27.319Z,63.05
2024-01-06T09:44:29.970Z,65.95
2024-01-06T09:46:33.376Z,57.83
2024-01-06T09:48:42.608Z,58.70
2024-01-06T09:50:49.018Z,68.28
2024-01-06T09:52:55.890Z,56.92
2024-01-06T09:55:01.970Z,52.95
2024-01-06T09:57:07.506Z,67.55
2024-01-06T09:59:09.895Z,63.80
2024-01-06T10:01:13.022Z,67.15
2024-01-06T10:03:15.708Z,76.13
2024-01-06T10:05:34.490Z,66.65
2024-01-06T10:07:53.145Z,71.43
2024-01-06T10:09:59.008Z,72.07
2024-01-06T10:12:01.618Z,66.22
2024-01-06T10:14:05.096Z,71.35
2024-01-06T10:16:08.270Z,69.10
2024-01-06T10:18:12.323Z,73.38
2024-01-06T10:20:16.975Z,67.85
2024-01-06T10:22:20.280Z,69.03
2024-01-06T10:24:23.010Z,66.15
2024-01-06T10:26:25.779Z,74.80
2024-01-06T10:28:28.296Z,66.00
2024-01-06T10:30:30.814Z,62.88
2024-01-06T10:32:38.105Z,65.43
2024-01-06T10:34:40.708Z,72.78
2024-01-06T10:36:43.361Z,67.43
2024-01-06T10:38:49.055Z,73.25
2024-01-06T10:41:03.377Z,65.97
2024-01-06T10:43:07.345Z,65.10
2024-01-06T10:45:11.856Z,77.88
2024-01-06T10:47:16.739Z,67.28
2024-01-06T10:49:23.094Z,98.10
2024-01-06T10:51:29.094Z,72.55
2024-01-06T10:53:33.300Z,69.60
2024-01-06T10:55:36.959Z,65.15
2024-01-06T10:57:40.328Z,67.50
2024-01-06T10:59:44.422Z,75.13
2024-01-06T11:01:48.180Z,64.80
2024-01-06T11:03:51.346Z,72.35
2024-01-06T11:05:53.947Z,68.85
2024-01-06T11:08:02.360Z,74.20
2024-01-06T11:10:17.014Z,67.50
2024-01-06T11:12:22.105Z,75.30
2024-01-06T11:14:27.722Z,69.40
2024-01-06T11:16:38.205Z,65.47
2024-01-06T11:18:42.783Z,71.13
2024-01-06T11:21:16.470Z,73.85
2024-01-06T11:23:22.067Z,65.72
2024-01-06T11:25:27.181Z,68.22
2024-01-06T11:27:32.342Z,66.03
2024-01-06T11:29:37.347Z,102.75
2024-01-06T11:31:40.872Z,70.55
2024-01-06T11:33:49.062Z,70.47
2024-01-06T11:35:55.333Z,64.07
2024-01-06T11:38:02.010Z,72.55
2024-01-06T11:40:06.144Z,65.22
2024-01-06T11:42:13.030Z,71.15
2024-01-06T11:44:21.185Z,68.70
2024-01-06T11:46:24.779Z,72.60
2024-01-06T11:48:34.368Z,65.28
2024-01-06T11:50:39.772Z,66.93
2024-01-06T11:52:42.428Z,72.72
2024-01-06T11:54:47.052Z,69.78
2024-01-06T11:56:50.312Z,69.80
2024-01-06T11:58:53.349Z,69.53
2024-01-06T12:00:59.631Z,71.57
2024-01-06T12:05:06.886Z,149.77
2024-01-06T12:07:10.742Z,70.75
2024-01-06T12:09:17.903Z,65.72
2024-01-06T12:13:22.884Z,54.35
2024-01-06T12:15:25.633Z,63.85
2024-01-06T12:17:32.725Z,57.95
2024-01-06T12:19:39.510Z,60.15
2024-01-06T12:21:43.532Z,61.60
2024-01-06T12:23:45.897Z,61.75
2024-01-06T12:25:51.034Z,61.80
2024-01-06T12:27:55.162Z,62.95
2024-01-06T12:29:57.684Z,57.60
2024-01-06T12:32:03.005Z,63.75
2024-01-06T12:34:06.044Z,60.65
2024-01-06T12:36:17.640Z,60.20
2024-01-06T12:38:23.760Z,57.22
2024-01-06T12:40:27.819Z,63.95
2024-01-06T12:42:30.774Z,63.05
2024-01-06T12:44:35.375Z,63.13
2024-01-06T12:46:38.161Z,50.75
2024-01-06T12:48:41.139Z,56.63
2024-01-06T12:50:44.441Z,52.80
2024-01-06T12:52:47.715Z,48.33
2024-01-06T12:54:50.471Z,51.10
2024-01-06T12:56:53.137Z,53.85
2024-01-06T12:58:55.922Z,51.65
2024-01-06T13:00:58.564Z,45.55
2024-01-06T13:03:01.580Z,51.38
2024-01-06T13:05:05.832Z,47.30
2024-01-06T13:07:08.658Z,48.10
2024-01-06T13:09:14.385Z,44.40
2024-01-06T13:11:17.224Z,55.63
2024-01-06T13:13:20.374Z,42.17
2024-01-06T13:15:23.002Z,41.75
2024-01-06T13:17:25.559Z,45.75
2024-01-06T13:19:32.384Z,48.78
2024-01-06T13:21:36.882Z,43.90
2024-01-06T13:23:39.775Z,44.95
2024-01-06T13:25:42.477Z,42.97
2024-01-06T13:27:46.498Z,49.20
2024-01-06T13:29:50.046Z,40.10
2024-01-06T13:31:54.341Z,44.50
2024-01-06T13:33:57.265Z,43.80
2024-01-06T13:36:00.747Z,43.60
2024-01-06T13:38:06.157Z,45.10
2024-01-06T13:40:10.856Z,49.28
2024-01-06T13:42:15.286Z,46.72
2024-01-06T13:44:19.321Z,51.33
2024-01-06T13:46:22.422Z,39.42
2024-01-06T13:48:25.416Z,41.10
2024-01-06T13:50:28.184Z,39.95
2024-01-06T13:52:30.865Z,43.67
2024-01-06T13:54:33.297Z,42.47
2024-01-06T13:56:36.769Z,37.85
2024-01-06T13:58:40.355Z,41.70
2024-01-06T14:00:45.173Z,37.55
2024-01-06T14:02:48.786Z,40.08
2024-01-06T14:04:52.664Z,39.30
2024-01-06T14:06:57.571Z,35.22
2024-01-06T14:09:01.973Z,36.30
2024-01-06T14:11:04.776Z,39.65
2024-01-06T14:13:09.649Z,39.10
2024-01-06T14:15:12.490Z,41.65
2024-01-06T14:17:15.755Z,39.95
2024-01-06T14:19:18.622Z,39.53
2024-01-06T14:21:22.619Z,38.03
2024-01-06T14:23:26.134Z,37.78
2024-01-06T14:25:28.592Z,35.15
2024-01-06T14:27:31.854Z,36.53
2024-01-06T14:29:35.038Z,41.28
2024-01-06T14:31:38.374Z,43.33
2024-01-06T14:33:41.317Z,37.92
2024-01-06T14:35:45.703Z,40.33
2024-01-06T14:37:49.120Z,43.08
2024-01-06T14:39:52.249Z,44.85
2024-01-06T14:41:54.897Z,41.60
2024-01-06T14:43:57.211Z,42.75
2024-01-06T14:46:00.342Z,41.88
2024-01-06T14:48:03.926Z,42.85
2024-01-06T14:50:08.401Z,45.03
2024-01-06T14:52:11.451Z,40.92
2024-01-06T14:54:14.118Z,45.30
2024-01-06T14:56:17.100Z,43.25
2024-01-06T14:58:19.825Z,42.38
2024-01-06T15:00:22.388Z,37.58
2024-01-06T15:02:25.209Z,45.53
2024-01-06T15:04:30.649Z,44.15
2024-01-06T15:06:34.081Z,36.75
2024-01-06T15:08:37.078Z,45.30
2024-01-06T15:10:43.970Z,40.75
2024-01-06T15:12:46.778Z,45.88
2024-01-06T15:14:49.731Z,42.13
2024-01-06T15:16:52.573Z,49.05
2024-01-06T15:19:00.383Z,42.13
2024-01-06T15:21:03.718Z,42.53
2024-01-06T15:23:07.612Z,43.17
2024-01-06T15:25:11.715Z,46.60
2024-01-06T15:27:17.475Z,43.45
2024-01-06T15:29:20.840Z,43.90
2024-01-06T15:31:24.427Z,46.30
2024-01-06T15:33:28.244Z,48.25
2024-01-06T15:35:31.398Z,43.90
2024-01-06T15:37:34.132Z,50.72
2024-01-06T15:39:36.854Z,42.70
2024-01-06T15:41:39.654Z,41.83
2024-01-06T15:43:42.853Z,48.65
2024-01-06T15:45:45.409Z,44.08
2024-01-06T15:47:48.530Z,48.75
2024-01-06T15:49:51.776Z,49.13
2024-01-06T15:51:55.232Z,52.65
2024-01-06T15:53:58.389Z,57.33
2024-01-06T15:56:02.735Z,49.58
2024-01-06T15:58:05.903Z,53.15
2024-01-06T16:00:10.266Z,49.58
2024-01-06T16:02:14.117Z,48.30
2024-01-06T16:04:16.899Z,50.90
2024-01-06T16:06:21.028Z,52.72
2024-01-06T16:08:24.127Z,53.50
2024-01-06T16:10:29.365Z,49.00
2024-01-06T16:12:33.563Z,52.38
2024-01-06T16:14:37.453Z,47.13
2024-01-06T16:16:40.840Z,51.85
2024-01-06T16:18:44.888Z,50.88
2024-01-06T16:20:48.866Z,47.15
2024-01-06T16:22:52.355Z,41.53
2024-01-06T16:24:55.239Z,47.80
2024-01-06T16:26:58.001Z,49.63
2024-01-06T16:29:01.430Z,47.13
2024-01-06T16:31:04.624Z,41.58
2024-01-06T16:33:08.566Z,45.88
2024-01-06T16:35:11.368Z,45.50
2024-01-06T16:37:15.216Z,49.30
2024-01-06T16:39:18.247Z,52.30
2024-01-06T16:41:27.686Z,41.75
2024-01-06T16:43:34.290Z,38.70
2024-01-06T16:45:37.229Z,40.50
2024-01-06T16:47:41.747Z,41.55
2024-01-06T16:49:44.867Z,35.78
2024-01-06T16:51:48.441Z,34.33
2024-01-06T16:53:51.515Z,45.35
2024-01-06T16:55:54.413Z,39.50
2024-01-06T16:58:01.073Z,38.08
2024-01-06T17:00:06.365Z,33.35
2024-01-06T17:02:09.424Z,38.92
2024-01-06T17:04:14.562Z,36.47
2024-01-06T17:06:18.194Z,33.25
2024-01-06T17:08:21.296Z,35.75
2024-01-06T17:10:25.033Z,36.83
2024-01-06T17:12:28.246Z,31.52
2024-01-06T17:14:31.287Z,33.13
2024-01-06T17:16:34.276Z,31.77
2024-01-06T17:18:37.051Z,36.33
2024-01-06T17:20:41.591Z,34.03
2024-01-06T17:22:46.347Z,34.08
2024-01-06T17:24:49.264Z,37.28
2024-01-06T17:26:52.780Z,31.05
2024-01-06T17:28:56.634Z,33.90
2024-01-06T17:31:00.688Z,32.63
2024-01-06T17:33:04.333Z,29.90
2024-01-06T17:35:11.680Z,41.95
2024-01-06T17:37:14.798Z,34.25
2024-01-06T17:39:18.489Z,35.47
2024-01-06T17:41:21.844Z,29.40
2024-01-06T17:43:24.736Z,29.02
2024-01-06T17:45:28.987Z,32.20
2024-01-06T17:47:33.491Z,30.55
2024-01-06T17:49:37.051Z,32.90
2024-01-06T17:51:40.230Z,28.60
2024-01-06T17:53:43.340Z,30.83
2024-01-06T17:55:46.189Z,35.03
2024-01-06T17:57:49.697Z,30.17
2024-01-06T17:59:58.366Z,31.92
2024-01-06T18:02:01.689Z,30.73
2024-01-06T18:04:05.005Z,33.28
2024-01-06T18:06:08.831Z,32.10
2024-01-06T18:08:12.500Z,29.63
2024-01-06T18:10:17.468Z,25.73
2024-01-06T18:12:20.572Z,30.85
2024-01-06T18:14:24.398Z,28.98
2024-01-06T18:16:27.586Z,27.13
2024-01-06T18:18:30.596Z,33.20
2024-01-06T18:20:33.748Z,33.92
2024-01-06T18:22:36.864Z,30.42
2024-01-06T18:24:41.086Z,32.67
2024-01-06T18:26:44.107Z,29.77
2024-01-06T18:28:47.744Z,28.50
2024-01-06T18:30:50.583Z,27.42
2024-01-06T18:32:53.644Z,25.65
2024-01-06T18:34:57.022Z,29.75
2024-01-06T18:37:00.591Z,31.00
2024-01-06T18:39:04.147Z,27.80
2024-01-06T18:41:07.189Z,32.38
2024-01-06T18:43:09.901Z,30.25
2024-01-06T18:45:12.903Z,30.30
2024-01-06T18:47:16.928Z,31.48
2024-01-06T18:49:21.379Z,27.13
2024-01-06T18:51:24.904Z,26.23
2024-01-06T18:53:29.962Z,28.95
2024-01-06T18:55:33.079Z,33.58
2024-01-06T18:57:37.312Z,30.05
2024-01-06T18:59:40.886Z,27.85
2024-01-06T19:01:45.488Z,30.98
2024-01-06T19:03:49.159Z,31.55
2024-01-06T19:05:52.410Z,29.30
2024-01-06T19:07:56.293Z,31.23
2024-01-06T19:09:59.640Z,32.42
2024-01-06T19:12:04.285Z,34.63
2024-01-06T19:14:08.018Z,38.45
2024-01-06T19:16:11.542Z,28.08
2024-01-06T19:18:14.744Z,26.83
2024-01-06T19:20:17.962Z,26.50
2024-01-06T19:22:20.696Z,22.30
2024-01-06T19:24:28.460Z,21.55
2024-01-06T19:26:43.616Z,20.90
2024-01-06T19:28:46.709Z,20.50
2024-01-06T19:30:49.550Z,24.55
2024-01-06T19:32:53.261Z,21.88
2024-01-06T19:34:57.074Z,20.92
2024-01-06T19:37:01.029Z,21.20
2024-01-06T19:39:05.518Z,20.38
2024-01-06T19:41:08.545Z,21.05
2024-01-06T19:43:11.752Z,24.23
2024-01-06T19:45:18.947Z,22.25
2024-01-06T19:47:21.951Z,19.05
2024-01-06T19:49:25.432Z,21.50
2024-01-06T19:51:28.915Z,19.40
2024-01-06T19:53:32.399Z,18.83
2024-01-06T19:55:36.432Z,19.55
2024-01-06T19:57:39.394Z,20.95
2024-01-06T19:59:42.762Z,26.15
2024-01-06T20:01:46.507Z,18.77
2024-01-06T20:03:51.290Z,20.40
2024-01-06T20:05:55.845Z,21.90
2024-01-06T20:07:59.390Z,23.27
2024-01-06T20:10:02.316Z,19.27
2024-01-06T20:12:05.615Z,21.90
2024-01-06T20:14:09.741Z,24.95
2024-01-06T20:16:12.690Z,21.40
2024-01-06T20:18:15.465Z,22.17
2024-01-06T20:20:19.783Z,21.02
2024-01-06T20:22:22.833Z,24.70
2024-01-06T20:24:26.264Z,21.40
2024-01-06T20:26:30.574Z,20.33
2024-01-06T20:28:33.976Z,25.50
2024-01-06T20:30:39.648Z,19.45
2024-01-06T20:32:43.275Z,23.42
2024-01-06T20:34:48.085Z,20.73
2024-01-06T20:36:51.058Z,21.23
2024-01-06T20:38:54.255Z,19.90
2024-01-06T20:40:57.946Z,18.85
2024-01-06T20:43:01.071Z,21.45
2024-01-06T20:45:06.415Z,20.30
2024-01-06T20:47:09.779Z,23.27
2024-01-06T20:49:13.329Z,25.95
2024-01-06T20:51:20.394Z,22.52
2024-01-06T20:53:23.866Z,23.35
2024-01-06T20:55:27.100Z,21.38
2024-01-06T20:57:30.718Z,24.63
2024-01-06T20:59:34.013Z,22.67
2024-01-06T21:01:38.422Z,25.85
2024-01-06T21:03:43.283Z,24.52
2024-01-06T21:05:46.837Z,22.48
2024-01-06T21:07:49.738Z,23.45
2024-01-06T21:09:55.722Z,24.50
2024-01-06T21:11:59.564Z,27.13
2024-01-06T21:14:02.674Z,23.02
2024-01-06T21:16:06.150Z,21.38
2024-01-06T21:18:09.573Z,26.45
2024-01-06T21:20:12.339Z,21.33
2024-01-06T21:22:15.854Z,23.30
2024-01-06T21:24:18.749Z,25.08
2024-01-06T21:26:25.664Z,22.17
2024-01-06T21:28:30.058Z,23.33
2024-01-06T21:30:33.596Z,24.50
2024-01-06T21:32:36.545Z,24.35
2024-01-06T21:34:40.188Z,24.23
2024-01-06T21:36:43.267Z,23.98
2024-01-06T21:38:46.545Z,23.95
2024-01-06T21:40:50.352Z,26.02
2024-01-06T21:42:53.981Z,20.85
2024-01-06T21:44:58.398Z,21.80
2024-01-06T21:47:04.141Z,24.13
2024-01-06T21:49:07.933Z,22.00
2024-01-06T21:51:11.202Z,22.02
2024-01-06T21:53:17.373Z,21.80
2024-01-06T21:55:20.100Z,23.48
2024-01-06T21:57:22.641Z,20.27
2024-01-06T21:59:26.834Z,24.35
2024-01-06T22:01:29.547Z,24.30
2024-01-06T22:03:56.223Z,24.25
2024-01-06T22:05:59.252Z,24.40
2024-01-06T22:08:02.076Z,23.42
2024-01-06T22:10:05.332Z,20.92
2024-01-06T22:12:09.412Z,23.80
2024-01-06T22:14:12.526Z,23.02
2024-01-06T22:16:16.834Z,20.77
2024-01-06T22:18:20.396Z,25.67
2024-01-06T22:20:24.022Z,21.77
2024-01-06T22:22:27.508Z,26.77
2024-01-06T22:24:30.725Z,22.35
2024-01-06T22:26:33.827Z,22.33
2024-01-06T22:28:37.106Z,22.02
2024-01-06T22:30:40.120Z,17.92
2024-01-06T22:32:43.396Z,25.30
2024-01-06T22:34:46.190Z,20.17
2024-01-06T22:36:49.387Z,20.20
2024-01-06T22:38:55.950Z,21.00
2024-01-06T22:41:00.632Z,23.40
2024-01-06T22:43:04.271Z,19.45
2024-01-06T22:45:07.232Z,19.60
2024-01-06T22:47:10.408Z,21.77
2024-01-06T22:49:13.052Z,21.40
2024-01-06T22:51:16.170Z,19.75
2024-01-06T22:53:19.392Z,20.50
2024-01-06T22:55:21.988Z,22.50
2024-01-06T22:57:24.956Z,18.42
2024-01-06T22:59:27.784Z,20.30
2024-01-06T23:01:33.105Z,20.80
2024-01-06T23:03:36.832Z,18.83
2024-01-06T23:05:40.671Z,20.73
2024-01-06T23:07:43.525Z,20.38
2024-01-06T23:09:46.192Z,23.50
2024-01-06T23:11:49.123Z,20.30
2024-01-06T23:13:52.475Z,17.13
2024-01-06T23:15:57.322Z,17.00
2024-01-06T23:18:00.359Z,16.38
2024-01-06T23:20:03.731Z,17.48
2024-01-06T23:22:07.138Z,20.67
2024-01-06T23:24:09.918Z,17.98
2024-01-06T23:26:12.935Z,19.90
2024-01-06T23:28:16.223Z,18.42
2024-01-06T23:30:19.604Z,16.75
2024-01-06T23:32:22.573Z,19.70
2024-01-06T23:34:38.130Z,18.52
2024-01-06T23:36:45.418Z,20.40
2024-01-06T23:38:48.073Z,20.00
2024-01-06T23:40:50.927Z,14.18
2024-01-06T23:42:53.390Z,18.48
2024-01-06T23:44:56.789Z,21.05
2024-01-06T23:47:00.038Z,19.30
2024-01-06T23:49:02.734Z,20.60
2024-01-06T23:51:05.682Z,15.57
2024-01-06T23:53:08.380Z,15.65
2024-01-06T23:55:12.317Z,14.80
2024-01-06T23:57:16.507Z,15.18
2024-01-06T23:59:19.886Z,18.23
